Airfield :
LOGIN :

Register | Disclaimer

   EN    FR    IT 

 










Legend :    VFR   Marginal VFR   IFR   Intensive IFR   Very Intensive IFR
Visi :
Ceiling :
>= 8 km
>= 3000ft
5 to 8 km
1000 to 3000 ft
1500m to 5 km
500 to 1000 ft
800 to 1500m
200 to 500 ft
< 800m
< 200 ft
Symbols :   Thunderstorms  Fog  Heavy snow  Heavy precipitations  Wind > 20 kt
SIGMETs :     Misc.  Thunderstorms  Icing  Turbulence  Mountain Waves  Volcanic Ashes







- Airport Elevation : 776 ft
- IATA code : RMS


ETAR - Ramstein Air Base

CURRENT METAR :
  • 251758Z 00000KT 9999 OVC080 09/M04 A2977 RMK AO2A SLP088 T00881038 10103 20075 56005 $

EXPIRED METARs :
  • 251658Z 32003KT 9999 BKN095 OVC110 09/M05 A2977 RMK AO2A SLP090 T00941050 $
  • 251558Z AUTO 29007KT 9999 BKN100 10/M04 A2978 RMK AO2 SLP094 T00991043 $

TAF TAF ETAR
Valid from the 25 at 18:00 until the 27 at 00:00 UTC


251802Z 2518/2624 02009KT 9999 BKN060 610809 611701 QNH2975INS
BECMG 2523/2524 03009KT 8000 -SHRA BKN020 QNH2975INS
BECMG 2603/2604 03009KT 9999 NSW BKN020 QNH2973INS
BECMG 2610/2611 01009KT 9999 BKN050 610509 611404 QNH2983INS TX13/2615Z TN02/2603Z
No reported NOTAMs for that airfield.



MET'MAP, your aeronautical weather chart ! - Copyright ORBIFLY December 2007 - Disclaimer

ORBIFLY MET'MAP TEAM :

Programming & Development : Alexandra Zaïnal
Concept & Development : Baudouin d'Aumeries
Co-Development & Prog : Marc-Olivier Méhu
Technical & hardware support : Manuel Goepfert

Contact : metmap@orbifly.com




SOURCES & CREDITS :

   NOAA